sensor_id;sensor_type;location;lat;lon;timestamp;temperature;humidity
33863;DHT22;20158;51.436;-2.742;2023-04-19T00:00:37;12.90;53.20
33863;DHT22;20158;51.436;-2.742;2023-04-19T00:03:05;12.80;53.10
33863;DHT22;20158;51.436;-2.742;2023-04-19T00:05:31;12.80;53.20
33863;DHT22;20158;51.436;-2.742;2023-04-19T00:07:57;12.80;53.30
33863;DHT22;20158;51.436;-2.742;2023-04-19T00:10:24;12.80;53.30
33863;DHT22;20158;51.436;-2.742;2023-04-19T00:12:50;12.80;53.40
33863;DHT22;20158;51.436;-2.742;2023-04-19T00:15:16;12.70;53.20
33863;DHT22;20158;51.436;-2.742;2023-04-19T00:17:42;12.70;53.30
33863;DHT22;20158;51.436;-2.742;2023-04-19T00:20:09;12.70;53.30
33863;DHT22;20158;51.436;-2.742;2023-04-19T00:22:39;12.60;53.20
33863;DHT22;20158;51.436;-2.742;2023-04-19T00:25:05;12.70;53.40
33863;DHT22;20158;51.436;-2.742;2023-04-19T00:27:31;12.60;53.20
33863;DHT22;20158;51.436;-2.742;2023-04-19T00:29:58;12.60;53.30
33863;DHT22;20158;51.436;-2.742;2023-04-19T00:32:24;12.60;53.30
33863;DHT22;20158;51.436;-2.742;2023-04-19T00:34:50;12.60;53.40
33863;DHT22;20158;51.436;-2.742;2023-04-19T00:37:16;12.60;53.40
33863;DHT22;20158;51.436;-2.742;2023-04-19T00:39:42;12.50;53.20
33863;DHT22;20158;51.436;-2.742;2023-04-19T00:42:08;12.50;53.30
33863;DHT22;20158;51.436;-2.742;2023-04-19T00:44:34;12.50;53.20
33863;DHT22;20158;51.436;-2.742;2023-04-19T00:47:00;12.50;53.30
33863;DHT22;20158;51.436;-2.742;2023-04-19T00:49:26;12.50;53.30
33863;DHT22;20158;51.436;-2.742;2023-04-19T00:51:52;12.50;53.30
33863;DHT22;20158;51.436;-2.742;2023-04-19T00:54:19;12.50;53.90
33863;DHT22;20158;51.436;-2.742;2023-04-19T00:56:48;12.50;53.40
33863;DHT22;20158;51.436;-2.742;2023-04-19T00:59:16;12.50;53.40
33863;DHT22;20158;51.436;-2.742;2023-04-19T01:01:43;12.50;53.50
33863;DHT22;20158;51.436;-2.742;2023-04-19T01:04:09;12.50;53.50
33863;DHT22;20158;51.436;-2.742;2023-04-19T01:06:35;12.40;53.50
33863;DHT22;20158;51.436;-2.742;2023-04-19T01:09:03;12.40;53.50
33863;DHT22;20158;51.436;-2.742;2023-04-19T01:11:29;12.40;53.60
33863;DHT22;20158;51.436;-2.742;2023-04-19T01:13:55;12.40;53.70
33863;DHT22;20158;51.436;-2.742;2023-04-19T01:16:27;12.40;53.70
33863;DHT22;20158;51.436;-2.742;2023-04-19T01:18:53;12.40;53.80
33863;DHT22;20158;51.436;-2.742;2023-04-19T01:21:19;12.30;53.70
33863;DHT22;20158;51.436;-2.742;2023-04-19T01:23:47;12.40;54.00
33863;DHT22;20158;51.436;-2.742;2023-04-19T01:26:14;12.40;54.10
33863;DHT22;20158;51.436;-2.742;2023-04-19T01:28:41;12.30;54.00
33863;DHT22;20158;51.436;-2.742;2023-04-19T01:31:08;12.30;54.10
33863;DHT22;20158;51.436;-2.742;2023-04-19T01:33:35;12.30;54.20
33863;DHT22;20158;51.436;-2.742;2023-04-19T01:36:01;12.40;54.50
33863;DHT22;20158;51.436;-2.742;2023-04-19T01:38:28;12.40;54.50
33863;DHT22;20158;51.436;-2.742;2023-04-19T01:40:53;12.40;54.60
33863;DHT22;20158;51.436;-2.742;2023-04-19T01:43:23;12.40;54.70
33863;DHT22;20158;51.436;-2.742;2023-04-19T01:45:49;12.40;54.70
33863;DHT22;20158;51.436;-2.742;2023-04-19T01:48:15;12.40;54.80
33863;DHT22;20158;51.436;-2.742;2023-04-19T01:50:41;12.40;54.80
33863;DHT22;20158;51.436;-2.742;2023-04-19T01:53:07;12.40;54.80
33863;DHT22;20158;51.436;-2.742;2023-04-19T01:55:33;12.40;54.90
33863;DHT22;20158;51.436;-2.742;2023-04-19T01:57:58;12.40;54.90
33863;DHT22;20158;51.436;-2.742;2023-04-19T02:00:25;12.50;55.10
33863;DHT22;20158;51.436;-2.742;2023-04-19T02:02:50;12.40;55.00
33863;DHT22;20158;51.436;-2.742;2023-04-19T02:05:16;12.40;55.00
33863;DHT22;20158;51.436;-2.742;2023-04-19T02:07:42;12.50;55.30
33863;DHT22;20158;51.436;-2.742;2023-04-19T02:10:09;12.40;55.10
33863;DHT22;20158;51.436;-2.742;2023-04-19T02:12:40;12.40;55.20
33863;DHT22;20158;51.436;-2.742;2023-04-19T02:15:07;12.40;55.30
33863;DHT22;20158;51.436;-2.742;2023-04-19T02:17:34;12.40;55.40
33863;DHT22;20158;51.436;-2.742;2023-04-19T02:20:00;12.50;55.70
33863;DHT22;20158;51.436;-2.742;2023-04-19T02:22:26;12.50;55.70
33863;DHT22;20158;51.436;-2.742;2023-04-19T02:24:52;12.50;55.70
33863;DHT22;20158;51.436;-2.742;2023-04-19T02:27:18;12.50;55.70
33863;DHT22;20158;51.436;-2.742;2023-04-19T02:29:44;12.50;56.40
33863;DHT22;20158;51.436;-2.742;2023-04-19T02:32:11;12.50;55.90
33863;DHT22;20158;51.436;-2.742;2023-04-19T02:34:37;12.50;55.90
33863;DHT22;20158;51.436;-2.742;2023-04-19T02:37:04;12.50;56.00
33863;DHT22;20158;51.436;-2.742;2023-04-19T02:39:30;12.50;56.00
33863;DHT22;20158;51.436;-2.742;2023-04-19T02:41:56;12.50;56.00
33863;DHT22;20158;51.436;-2.742;2023-04-19T02:44:22;12.50;56.10
33863;DHT22;20158;51.436;-2.742;2023-04-19T02:46:49;12.50;56.20
33863;DHT22;20158;51.436;-2.742;2023-04-19T02:49:16;12.40;56.00
33863;DHT22;20158;51.436;-2.742;2023-04-19T02:51:43;12.50;56.80
33863;DHT22;20158;51.436;-2.742;2023-04-19T02:54:11;12.50;56.30
33863;DHT22;20158;51.436;-2.742;2023-04-19T02:56:38;12.40;56.20
33863;DHT22;20158;51.436;-2.742;2023-04-19T02:59:04;12.50;56.40
33863;DHT22;20158;51.436;-2.742;2023-04-19T03:01:31;12.40;56.20
33863;DHT22;20158;51.436;-2.742;2023-04-19T03:03:59;12.40;56.30
33863;DHT22;20158;51.436;-2.742;2023-04-19T03:06:25;12.50;56.50
33863;DHT22;20158;51.436;-2.742;2023-04-19T03:08:51;12.40;56.40
33863;DHT22;20158;51.436;-2.742;2023-04-19T03:11:18;12.40;56.40
33863;DHT22;20158;51.436;-2.742;2023-04-19T03:13:45;12.40;56.50
33863;DHT22;20158;51.436;-2.742;2023-04-19T03:16:12;12.40;56.50
33863;DHT22;20158;51.436;-2.742;2023-04-19T03:18:39;12.40;56.60
33863;DHT22;20158;51.436;-2.742;2023-04-19T03:21:05;12.40;56.70
33863;DHT22;20158;51.436;-2.742;2023-04-19T03:23:44;12.30;56.50
33863;DHT22;20158;51.436;-2.742;2023-04-19T03:26:10;12.40;56.70
33863;DHT22;20158;51.436;-2.742;2023-04-19T03:28:43;12.30;56.60
33863;DHT22;20158;51.436;-2.742;2023-04-19T03:31:19;12.40;56.80
33863;DHT22;20158;51.436;-2.742;2023-04-19T03:33:49;12.30;56.50
33863;DHT22;20158;51.436;-2.742;2023-04-19T03:36:16;12.30;56.60
33863;DHT22;20158;51.436;-2.742;2023-04-19T03:38:44;12.30;56.70
33863;DHT22;20158;51.436;-2.742;2023-04-19T03:41:23;12.30;56.80
33863;DHT22;20158;51.436;-2.742;2023-04-19T03:43:58;12.30;56.90
33863;DHT22;20158;51.436;-2.742;2023-04-19T03:46:24;12.30;56.90
33863;DHT22;20158;51.436;-2.742;2023-04-19T03:48:50;12.30;57.00
33863;DHT22;20158;51.436;-2.742;2023-04-19T03:51:18;12.30;57.00
33863;DHT22;20158;51.436;-2.742;2023-04-19T03:53:44;12.30;57.10
33863;DHT22;20158;51.436;-2.742;2023-04-19T03:56:10;12.30;57.20
33863;DHT22;20158;51.436;-2.742;2023-04-19T03:58:36;12.30;57.20
33863;DHT22;20158;51.436;-2.742;2023-04-19T04:01:06;12.20;57.10
33863;DHT22;20158;51.436;-2.742;2023-04-19T04:03:34;12.20;57.20
33863;DHT22;20158;51.436;-2.742;2023-04-19T04:06:01;12.20;57.20
33863;DHT22;20158;51.436;-2.742;2023-04-19T04:08:27;12.20;57.30
33863;DHT22;20158;51.436;-2.742;2023-04-19T04:10:53;12.20;57.30
33863;DHT22;20158;51.436;-2.742;2023-04-19T04:13:20;12.20;57.40
33863;DHT22;20158;51.436;-2.742;2023-04-19T04:16:01;12.20;57.50
33863;DHT22;20158;51.436;-2.742;2023-04-19T04:18:27;12.20;57.50
33863;DHT22;20158;51.436;-2.742;2023-04-19T04:20:53;12.10;57.40
33863;DHT22;20158;51.436;-2.742;2023-04-19T04:23:20;12.20;57.70
33863;DHT22;20158;51.436;-2.742;2023-04-19T04:25:56;12.10;57.50
33863;DHT22;20158;51.436;-2.742;2023-04-19T04:28:26;12.20;57.90
33863;DHT22;20158;51.436;-2.742;2023-04-19T04:30:54;12.10;57.60
33863;DHT22;20158;51.436;-2.742;2023-04-19T04:33:24;12.10;57.70
33863;DHT22;20158;51.436;-2.742;2023-04-19T04:35:52;12.10;57.70
33863;DHT22;20158;51.436;-2.742;2023-04-19T04:38:21;12.10;57.80
33863;DHT22;20158;51.436;-2.742;2023-04-19T04:40:52;12.10;58.40
33863;DHT22;20158;51.436;-2.742;2023-04-19T04:43:22;12.10;58.00
33863;DHT22;20158;51.436;-2.742;2023-04-19T04:45:49;12.10;58.00
33863;DHT22;20158;51.436;-2.742;2023-04-19T04:48:16;12.10;58.10
33863;DHT22;20158;51.436;-2.742;2023-04-19T04:50:42;12.10;58.20
33863;DHT22;20158;51.436;-2.742;2023-04-19T04:53:09;12.00;58.10
33863;DHT22;20158;51.436;-2.742;2023-04-19T04:55:37;12.00;58.20
33863;DHT22;20158;51.436;-2.742;2023-04-19T04:58:03;12.00;58.30
33863;DHT22;20158;51.436;-2.742;2023-04-19T05:00:58;12.00;58.40
33863;DHT22;20158;51.436;-2.742;2023-04-19T05:03:26;12.00;58.50
33863;DHT22;20158;51.436;-2.742;2023-04-19T05:05:56;11.90;58.40
33863;DHT22;20158;51.436;-2.742;2023-04-19T05:08:25;11.90;58.50
33863;DHT22;20158;51.436;-2.742;2023-04-19T05:10:52;11.90;58.60
33863;DHT22;20158;51.436;-2.742;2023-04-19T05:13:21;11.90;58.70
33863;DHT22;20158;51.436;-2.742;2023-04-19T05:15:48;11.90;58.80
33863;DHT22;20158;51.436;-2.742;2023-04-19T05:18:14;11.90;58.90
33863;DHT22;20158;51.436;-2.742;2023-04-19T05:20:41;11.90;59.00
33863;DHT22;20158;51.436;-2.742;2023-04-19T05:23:17;11.80;58.90
33863;DHT22;20158;51.436;-2.742;2023-04-19T05:25:43;11.90;59.10
33863;DHT22;20158;51.436;-2.742;2023-04-19T05:28:09;11.90;59.20
33863;DHT22;20158;51.436;-2.742;2023-04-19T05:30:46;11.90;59.30
33863;DHT22;20158;51.436;-2.742;2023-04-19T05:33:12;11.90;59.30
33863;DHT22;20158;51.436;-2.742;2023-04-19T05:35:38;11.90;59.40
33863;DHT22;20158;51.436;-2.742;2023-04-19T05:38:04;12.00;59.60
33863;DHT22;20158;51.436;-2.742;2023-04-19T05:40:31;12.00;59.70
33863;DHT22;20158;51.436;-2.742;2023-04-19T05:42:57;12.00;59.80
33863;DHT22;20158;51.436;-2.742;2023-04-19T05:45:24;12.00;59.80
33863;DHT22;20158;51.436;-2.742;2023-04-19T05:47:51;12.10;60.10
33863;DHT22;20158;51.436;-2.742;2023-04-19T05:50:20;12.10;60.20
33863;DHT22;20158;51.436;-2.742;2023-04-19T05:53:01;12.00;60.10
33863;DHT22;20158;51.436;-2.742;2023-04-19T05:55:28;12.10;60.20
33863;DHT22;20158;51.436;-2.742;2023-04-19T05:57:55;12.10;60.00
33863;DHT22;20158;51.436;-2.742;2023-04-19T06:00:25;12.00;60.00
33863;DHT22;20158;51.436;-2.742;2023-04-19T06:02:59;12.00;60.20
33863;DHT22;20158;51.436;-2.742;2023-04-19T06:05:25;12.00;60.30
33863;DHT22;20158;51.436;-2.742;2023-04-19T06:07:51;11.90;60.20
33863;DHT22;20158;51.436;-2.742;2023-04-19T06:10:21;12.00;60.50
33863;DHT22;20158;51.436;-2.742;2023-04-19T06:12:48;12.00;60.60
33863;DHT22;20158;51.436;-2.742;2023-04-19T06:15:14;12.00;60.70
33863;DHT22;20158;51.436;-2.742;2023-04-19T06:17:40;12.00;60.80
33863;DHT22;20158;51.436;-2.742;2023-04-19T06:20:07;12.00;60.90
33863;DHT22;20158;51.436;-2.742;2023-04-19T06:22:34;12.00;60.90
33863;DHT22;20158;51.436;-2.742;2023-04-19T06:25:06;12.10;61.10
33863;DHT22;20158;51.436;-2.742;2023-04-19T06:27:32;12.10;61.10
33863;DHT22;20158;51.436;-2.742;2023-04-19T06:29:58;12.20;61.20
33863;DHT22;20158;51.436;-2.742;2023-04-19T06:32:25;12.20;61.50
33863;DHT22;20158;51.436;-2.742;2023-04-19T06:34:51;12.40;62.20
33863;DHT22;20158;51.436;-2.742;2023-04-19T06:37:17;12.60;62.70
33863;DHT22;20158;51.436;-2.742;2023-04-19T06:39:43;12.80;63.00
33863;DHT22;20158;51.436;-2.742;2023-04-19T06:42:09;13.10;63.20
33863;DHT22;20158;51.436;-2.742;2023-04-19T06:44:35;13.40;63.40
33863;DHT22;20158;51.436;-2.742;2023-04-19T06:47:01;13.60;63.40
33863;DHT22;20158;51.436;-2.742;2023-04-19T06:49:27;13.80;63.30
33863;DHT22;20158;51.436;-2.742;2023-04-19T06:51:53;14.00;63.30
33863;DHT22;20158;51.436;-2.742;2023-04-19T06:54:19;14.20;63.30
33863;DHT22;20158;51.436;-2.742;2023-04-19T06:56:47;14.40;63.30
33863;DHT22;20158;51.436;-2.742;2023-04-19T06:59:18;14.70;63.40
33863;DHT22;20158;51.436;-2.742;2023-04-19T07:01:46;14.80;63.30
33863;DHT22;20158;51.436;-2.742;2023-04-19T07:04:13;15.00;63.20
33863;DHT22;20158;51.436;-2.742;2023-04-19T07:06:39;15.20;63.20
33863;DHT22;20158;51.436;-2.742;2023-04-19T07:09:06;15.40;63.20
33863;DHT22;20158;51.436;-2.742;2023-04-19T07:11:32;15.60;63.10
33863;DHT22;20158;51.436;-2.742;2023-04-19T07:13:59;15.80;63.10
33863;DHT22;20158;51.436;-2.742;2023-04-19T07:16:28;16.00;63.00
33863;DHT22;20158;51.436;-2.742;2023-04-19T07:18:53;16.10;62.80
33863;DHT22;20158;51.436;-2.742;2023-04-19T07:21:20;16.30;62.80
33863;DHT22;20158;51.436;-2.742;2023-04-19T07:23:46;16.40;62.60
33863;DHT22;20158;51.436;-2.742;2023-04-19T07:26:12;16.60;62.50
33863;DHT22;20158;51.436;-2.742;2023-04-19T07:28:39;16.70;62.30
33863;DHT22;20158;51.436;-2.742;2023-04-19T07:31:05;16.80;62.10
33863;DHT22;20158;51.436;-2.742;2023-04-19T07:33:31;16.80;61.90
33863;DHT22;20158;51.436;-2.742;2023-04-19T07:35:57;16.90;61.80
33863;DHT22;20158;51.436;-2.742;2023-04-19T07:38:23;16.90;61.50
33863;DHT22;20158;51.436;-2.742;2023-04-19T07:40:50;17.00;61.50
33863;DHT22;20158;51.436;-2.742;2023-04-19T07:43:16;17.00;61.30
33863;DHT22;20158;51.436;-2.742;2023-04-19T07:45:42;17.00;61.20
33863;DHT22;20158;51.436;-2.742;2023-04-19T07:48:07;17.00;61.00
33863;DHT22;20158;51.436;-2.742;2023-04-19T07:50:33;17.10;61.00
33863;DHT22;20158;51.436;-2.742;2023-04-19T07:52:59;17.10;60.90
33863;DHT22;20158;51.436;-2.742;2023-04-19T07:55:25;17.20;60.90
33863;DHT22;20158;51.436;-2.742;2023-04-19T07:57:51;17.30;61.00
33863;DHT22;20158;51.436;-2.742;2023-04-19T08:00:17;17.40;60.90
33863;DHT22;20158;51.436;-2.742;2023-04-19T08:02:46;17.60;61.00
33863;DHT22;20158;51.436;-2.742;2023-04-19T08:05:14;17.90;61.10
33863;DHT22;20158;51.436;-2.742;2023-04-19T08:07:44;18.30;61.10
33863;DHT22;20158;51.436;-2.742;2023-04-19T08:10:11;18.60;60.80
33863;DHT22;20158;51.436;-2.742;2023-04-19T08:12:37;18.80;60.40
33863;DHT22;20158;51.436;-2.742;2023-04-19T08:15:06;18.90;60.00
33863;DHT22;20158;51.436;-2.742;2023-04-19T08:17:32;19.00;59.70
33863;DHT22;20158;51.436;-2.742;2023-04-19T08:19:59;19.10;59.70
33863;DHT22;20158;51.436;-2.742;2023-04-19T08:22:25;19.10;59.50
33863;DHT22;20158;51.436;-2.742;2023-04-19T08:24:52;19.10;59.30
33863;DHT22;20158;51.436;-2.742;2023-04-19T08:27:18;19.10;59.20
33863;DHT22;20158;51.436;-2.742;2023-04-19T08:29:45;19.10;59.10
33863;DHT22;20158;51.436;-2.742;2023-04-19T08:32:11;19.20;59.00
33863;DHT22;20158;51.436;-2.742;2023-04-19T08:34:38;19.30;59.00
33863;DHT22;20158;51.436;-2.742;2023-04-19T08:37:05;19.40;58.70
33863;DHT22;20158;51.436;-2.742;2023-04-19T08:39:33;19.50;58.70
33863;DHT22;20158;51.436;-2.742;2023-04-19T08:42:04;19.70;59.30
33863;DHT22;20158;51.436;-2.742;2023-04-19T08:44:32;19.80;58.50
33863;DHT22;20158;51.436;-2.742;2023-04-19T08:46:59;19.90;58.40
33863;DHT22;20158;51.436;-2.742;2023-04-19T08:49:27;20.10;58.30
33863;DHT22;20158;51.436;-2.742;2023-04-19T08:51:54;20.20;58.10
33863;DHT22;20158;51.436;-2.742;2023-04-19T08:54:22;20.30;57.90
33863;DHT22;20158;51.436;-2.742;2023-04-19T08:56:52;20.30;57.70
33863;DHT22;20158;51.436;-2.742;2023-04-19T08:59:19;20.40;57.70
33863;DHT22;20158;51.436;-2.742;2023-04-19T09:01:45;20.40;57.50
33863;DHT22;20158;51.436;-2.742;2023-04-19T09:04:11;20.60;57.60
33863;DHT22;20158;51.436;-2.742;2023-04-19T09:06:38;20.70;57.70
33863;DHT22;20158;51.436;-2.742;2023-04-19T09:09:25;20.80;57.50
33863;DHT22;20158;51.436;-2.742;2023-04-19T09:11:51;20.90;57.10
33863;DHT22;20158;51.436;-2.742;2023-04-19T09:14:19;21.00;57.10
33863;DHT22;20158;51.436;-2.742;2023-04-19T09:16:45;21.20;57.00
33863;DHT22;20158;51.436;-2.742;2023-04-19T09:19:11;21.30;56.90
33863;DHT22;20158;51.436;-2.742;2023-04-19T09:21:38;21.50;57.20
33863;DHT22;20158;51.436;-2.742;2023-04-19T09:24:05;21.60;56.60
33863;DHT22;20158;51.436;-2.742;2023-04-19T09:26:31;21.70;56.50
33863;DHT22;20158;51.436;-2.742;2023-04-19T09:29:05;21.70;56.20
33863;DHT22;20158;51.436;-2.742;2023-04-19T09:31:36;21.80;56.00
33863;DHT22;20158;51.436;-2.742;2023-04-19T09:34:17;21.80;56.00
33863;DHT22;20158;51.436;-2.742;2023-04-19T09:36:44;21.90;55.70
33863;DHT22;20158;51.436;-2.742;2023-04-19T09:39:10;21.90;55.70
33863;DHT22;20158;51.436;-2.742;2023-04-19T09:41:53;22.00;55.60
33863;DHT22;20158;51.436;-2.742;2023-04-19T09:44:19;22.10;55.30
33863;DHT22;20158;51.436;-2.742;2023-04-19T09:46:45;22.20;55.50
33863;DHT22;20158;51.436;-2.742;2023-04-19T09:51:53;22.30;55.10
33863;DHT22;20158;51.436;-2.742;2023-04-19T09:54:22;22.40;55.00
33863;DHT22;20158;51.436;-2.742;2023-04-19T09:56:49;22.50;54.90
33863;DHT22;20158;51.436;-2.742;2023-04-19T09:59:15;22.60;54.90
33863;DHT22;20158;51.436;-2.742;2023-04-19T10:01:46;22.70;54.80
33863;DHT22;20158;51.436;-2.742;2023-04-19T10:04:14;22.80;54.50
33863;DHT22;20158;51.436;-2.742;2023-04-19T10:06:50;22.90;54.30
33863;DHT22;20158;51.436;-2.742;2023-04-19T10:09:17;22.90;54.00
33863;DHT22;20158;51.436;-2.742;2023-04-19T10:11:51;23.00;54.00
33863;DHT22;20158;51.436;-2.742;2023-04-19T10:14:23;23.10;53.60
33863;DHT22;20158;51.436;-2.742;2023-04-19T10:16:53;23.20;53.60
33863;DHT22;20158;51.436;-2.742;2023-04-19T10:19:21;23.20;53.50
33863;DHT22;20158;51.436;-2.742;2023-04-19T10:21:48;23.20;53.20
33863;DHT22;20158;51.436;-2.742;2023-04-19T10:24:16;23.20;53.00
33863;DHT22;20158;51.436;-2.742;2023-04-19T10:27:08;23.20;52.80
33863;DHT22;20158;51.436;-2.742;2023-04-19T10:29:55;23.30;52.40
33863;DHT22;20158;51.436;-2.742;2023-04-19T10:32:22;23.40;52.40
33863;DHT22;20158;51.436;-2.742;2023-04-19T10:34:51;23.50;52.70
33863;DHT22;20158;51.436;-2.742;2023-04-19T10:37:25;23.60;52.60
33863;DHT22;20158;51.436;-2.742;2023-04-19T10:39:51;23.70;52.50
33863;DHT22;20158;51.436;-2.742;2023-04-19T10:42:17;23.90;52.60
33863;DHT22;20158;51.436;-2.742;2023-04-19T10:47:54;24.10;52.20
33863;DHT22;20158;51.436;-2.742;2023-04-19T10:50:22;24.20;52.50
33863;DHT22;20158;51.436;-2.742;2023-04-19T10:52:48;24.30;52.20
33863;DHT22;20158;51.436;-2.742;2023-04-19T10:55:17;24.50;52.40
33863;DHT22;20158;51.436;-2.742;2023-04-19T10:58:03;24.60;52.00
33863;DHT22;20158;51.436;-2.742;2023-04-19T11:00:30;24.80;51.60
33863;DHT22;20158;51.436;-2.742;2023-04-19T11:06:19;25.00;51.20
33863;DHT22;20158;51.436;-2.742;2023-04-19T11:08:47;25.20;51.30
33863;DHT22;20158;51.436;-2.742;2023-04-19T11:11:13;25.20;51.20
33863;DHT22;20158;51.436;-2.742;2023-04-19T11:13:43;25.20;51.00
33863;DHT22;20158;51.436;-2.742;2023-04-19T11:16:09;25.10;50.80
33863;DHT22;20158;51.436;-2.742;2023-04-19T11:18:35;25.10;50.90
33863;DHT22;20158;51.436;-2.742;2023-04-19T11:21:01;24.90;50.70
33863;DHT22;20158;51.436;-2.742;2023-04-19T11:23:27;24.80;50.70
33863;DHT22;20158;51.436;-2.742;2023-04-19T11:25:52;24.70;50.70
33863;DHT22;20158;51.436;-2.742;2023-04-19T11:28:20;24.60;50.60
33863;DHT22;20158;51.436;-2.742;2023-04-19T11:30:47;24.50;50.60
33863;DHT22;20158;51.436;-2.742;2023-04-19T11:33:14;24.40;50.70
33863;DHT22;20158;51.436;-2.742;2023-04-19T11:35:40;24.30;50.60
33863;DHT22;20158;51.436;-2.742;2023-04-19T11:38:08;24.30;50.70
33863;DHT22;20158;51.436;-2.742;2023-04-19T11:40:37;24.20;50.50
33863;DHT22;20158;51.436;-2.742;2023-04-19T11:43:03;24.10;50.50
33863;DHT22;20158;51.436;-2.742;2023-04-19T11:45:35;24.10;50.50
33863;DHT22;20158;51.436;-2.742;2023-04-19T11:48:04;24.10;50.60
33863;DHT22;20158;51.436;-2.742;2023-04-19T11:50:39;24.10;51.20
33863;DHT22;20158;51.436;-2.742;2023-04-19T11:53:25;24.30;50.80
33863;DHT22;20158;51.436;-2.742;2023-04-19T11:56:10;24.40;50.60
33863;DHT22;20158;51.436;-2.742;2023-04-19T11:58:37;24.50;50.50
33863;DHT22;20158;51.436;-2.742;2023-04-19T12:01:09;24.60;50.70
33863;DHT22;20158;51.436;-2.742;2023-04-19T12:03:52;24.70;50.70
33863;DHT22;20158;51.436;-2.742;2023-04-19T12:08:51;24.80;50.30
33863;DHT22;20158;51.436;-2.742;2023-04-19T12:11:20;24.80;50.30
33863;DHT22;20158;51.436;-2.742;2023-04-19T12:13:48;24.80;50.20
33863;DHT22;20158;51.436;-2.742;2023-04-19T12:16:14;24.80;50.10
33863;DHT22;20158;51.436;-2.742;2023-04-19T12:18:51;24.80;50.00
33863;DHT22;20158;51.436;-2.742;2023-04-19T12:21:28;24.80;49.90
33863;DHT22;20158;51.436;-2.742;2023-04-19T12:23:56;24.80;49.70
33863;DHT22;20158;51.436;-2.742;2023-04-19T12:26:23;24.80;50.00
33863;DHT22;20158;51.436;-2.742;2023-04-19T12:28:49;24.80;49.90
33863;DHT22;20158;51.436;-2.742;2023-04-19T12:31:15;24.90;49.90
33863;DHT22;20158;51.436;-2.742;2023-04-19T12:33:41;24.90;50.20
33863;DHT22;20158;51.436;-2.742;2023-04-19T12:36:07;25.10;49.60
33863;DHT22;20158;51.436;-2.742;2023-04-19T12:38:33;25.30;49.50
33863;DHT22;20158;51.436;-2.742;2023-04-19T12:41:00;25.40;49.30
33863;DHT22;20158;51.436;-2.742;2023-04-19T12:43:26;25.60;49.20
33863;DHT22;20158;51.436;-2.742;2023-04-19T12:45:54;25.80;49.10
33863;DHT22;20158;51.436;-2.742;2023-04-19T12:48:20;26.00;49.10
33863;DHT22;20158;51.436;-2.742;2023-04-19T12:50:46;26.00;49.00
33863;DHT22;20158;51.436;-2.742;2023-04-19T12:53:12;26.10;48.80
33863;DHT22;20158;51.436;-2.742;2023-04-19T12:55:38;26.00;48.60
33863;DHT22;20158;51.436;-2.742;2023-04-19T12:58:05;26.00;48.70
33863;DHT22;20158;51.436;-2.742;2023-04-19T13:00:31;25.90;48.80
33863;DHT22;20158;51.436;-2.742;2023-04-19T13:02:57;25.90;48.80
33863;DHT22;20158;51.436;-2.742;2023-04-19T13:05:23;25.80;48.60
33863;DHT22;20158;51.436;-2.742;2023-04-19T13:07:49;25.80;48.70
33863;DHT22;20158;51.436;-2.742;2023-04-19T13:10:15;25.70;48.70
33863;DHT22;20158;51.436;-2.742;2023-04-19T13:12:40;25.70;48.70
33863;DHT22;20158;51.436;-2.742;2023-04-19T13:15:07;25.60;48.70
33863;DHT22;20158;51.436;-2.742;2023-04-19T13:17:35;25.60;48.70
33863;DHT22;20158;51.436;-2.742;2023-04-19T13:20:02;25.70;48.70
33863;DHT22;20158;51.436;-2.742;2023-04-19T13:22:31;25.80;48.80
33863;DHT22;20158;51.436;-2.742;2023-04-19T13:24:57;25.90;48.50
33863;DHT22;20158;51.436;-2.742;2023-04-19T13:27:23;26.00;48.30
33863;DHT22;20158;51.436;-2.742;2023-04-19T13:29:49;26.10;48.40
33863;DHT22;20158;51.436;-2.742;2023-04-19T13:32:15;26.20;48.40
33863;DHT22;20158;51.436;-2.742;2023-04-19T13:34:41;26.30;48.30
33863;DHT22;20158;51.436;-2.742;2023-04-19T13:37:07;26.40;48.20
33863;DHT22;20158;51.436;-2.742;2023-04-19T13:39:33;26.60;48.00
33863;DHT22;20158;51.436;-2.742;2023-04-19T13:41:59;26.80;47.90
33863;DHT22;20158;51.436;-2.742;2023-04-19T13:44:27;27.00;47.70
33863;DHT22;20158;51.436;-2.742;2023-04-19T13:46:53;27.20;47.50
33863;DHT22;20158;51.436;-2.742;2023-04-19T13:49:19;27.40;47.80
33863;DHT22;20158;51.436;-2.742;2023-04-19T13:51:45;27.30;46.90
33863;DHT22;20158;51.436;-2.742;2023-04-19T13:54:10;27.30;47.00
33863;DHT22;20158;51.436;-2.742;2023-04-19T13:56:36;27.10;47.20
33863;DHT22;20158;51.436;-2.742;2023-04-19T13:59:02;27.00;47.40
33863;DHT22;20158;51.436;-2.742;2023-04-19T14:01:29;26.80;47.50
33863;DHT22;20158;51.436;-2.742;2023-04-19T14:03:55;26.90;47.70
33863;DHT22;20158;51.436;-2.742;2023-04-19T14:06:20;27.00;47.70
33863;DHT22;20158;51.436;-2.742;2023-04-19T14:08:46;27.00;47.60
33863;DHT22;20158;51.436;-2.742;2023-04-19T14:11:12;27.00;47.50
33863;DHT22;20158;51.436;-2.742;2023-04-19T14:13:38;26.90;47.50
33863;DHT22;20158;51.436;-2.742;2023-04-19T14:16:04;26.90;47.60
33863;DHT22;20158;51.436;-2.742;2023-04-19T14:18:30;26.80;47.70
33863;DHT22;20158;51.436;-2.742;2023-04-19T14:20:56;26.70;47.60
33863;DHT22;20158;51.436;-2.742;2023-04-19T14:23:22;26.60;47.60
33863;DHT22;20158;51.436;-2.742;2023-04-19T14:25:48;26.50;47.60
33863;DHT22;20158;51.436;-2.742;2023-04-19T14:28:13;26.50;47.50
33863;DHT22;20158;51.436;-2.742;2023-04-19T14:30:39;26.50;47.60
33863;DHT22;20158;51.436;-2.742;2023-04-19T14:33:05;26.50;47.50
33863;DHT22;20158;51.436;-2.742;2023-04-19T14:35:31;26.50;48.20
33863;DHT22;20158;51.436;-2.742;2023-04-19T14:37:57;26.50;48.30
33863;DHT22;20158;51.436;-2.742;2023-04-19T14:40:23;26.60;47.70
33863;DHT22;20158;51.436;-2.742;2023-04-19T14:42:49;26.70;47.50
33863;DHT22;20158;51.436;-2.742;2023-04-19T14:45:15;26.80;47.30
33863;DHT22;20158;51.436;-2.742;2023-04-19T14:47:41;26.90;47.50
33863;DHT22;20158;51.436;-2.742;2023-04-19T14:50:07;27.00;47.30
33863;DHT22;20158;51.436;-2.742;2023-04-19T14:52:33;27.10;47.00
33863;DHT22;20158;51.436;-2.742;2023-04-19T14:54:59;27.10;46.90
33863;DHT22;20158;51.436;-2.742;2023-04-19T14:57:28;27.10;47.00
33863;DHT22;20158;51.436;-2.742;2023-04-19T14:59:55;26.90;46.90
33863;DHT22;20158;51.436;-2.742;2023-04-19T15:02:23;26.80;47.10
33863;DHT22;20158;51.436;-2.742;2023-04-19T15:04:49;26.60;47.10
33863;DHT22;20158;51.436;-2.742;2023-04-19T15:07:15;26.50;47.20
33863;DHT22;20158;51.436;-2.742;2023-04-19T15:09:41;26.40;47.20
33863;DHT22;20158;51.436;-2.742;2023-04-19T15:12:07;26.30;47.20
33863;DHT22;20158;51.436;-2.742;2023-04-19T15:14:33;26.20;47.30
33863;DHT22;20158;51.436;-2.742;2023-04-19T15:16:59;26.00;47.40
33863;DHT22;20158;51.436;-2.742;2023-04-19T15:19:25;25.90;47.30
33863;DHT22;20158;51.436;-2.742;2023-04-19T15:21:51;25.70;47.50
33863;DHT22;20158;51.436;-2.742;2023-04-19T15:24:17;25.50;47.50
33863;DHT22;20158;51.436;-2.742;2023-04-19T15:26:43;25.40;47.80
33863;DHT22;20158;51.436;-2.742;2023-04-19T15:29:08;25.30;47.90